Αρχική σελίδα
METAR-TAF:

METAR-TAF

Αεροδρόμια :

Cape Peel West, Νούναβουτ, Καναδάς

γεωγραφικό πλάτος: 69-02N, γεωγραφικό μήκος: 107-49W, υψόμετρο: 165 μ

Παρών καιρός

Η αναφορά έγινε 1 ώρα και 12 λεπτά πριν, στις 14:00 UTC
Άνεμος 5 kt από Ν/NA
Θερμοκρασία -11°C
Υγρασία 85%
Πίεση 982 hPa
Αρκετά νέφη σε ύψος 15000 πόδια
Νεφοσκεπής σε ύψος 17000 πόδια

METAR: CWPX 101400Z AUTO 16005KT ////SM //// BKN150 OVC170 M11/M13 A2900

Χρόνος: 08:12 (15:12 UTC)


TAF: λείπει

Μετεωρολογικές αναφορές και προγνώσεις για περισσότερα από 4000 αεροδρόμια (δελτία METAR και TAF).

Οι διαθέσιμοι σταθμοί απεικονίζονται στο χάρτη με κίτρινες και κόκκινες κουκκίδες.

Μετακινήστε το ποντίκι πάνω από τις κουκκίδες για να δείτε το όνομα του σταθμού.

Στη συνέχεια, κάντε κλικ για να δείτε τις μετεωρολογικές αναφορές και τις προγνώσεις καιρού.

Για να αλλάξετε το χάρτη: κάντε κλικ στα πράσινα κουμπιά με τον μαύρο σταυρό για να ζουμάρετε, στο πράσινο κουμπί με την παύλα για να αφαιρέσετε το ζουμ ή στα πράσινα βέλη για να αντιπαραβάλλετε χάρτες.


METAR-TAF: